Time;durP1;ratioP1;P1;durP2;ratioP2;P2;SDS_P1;SDS_P2;PMS_P1;PMS_P2;Temp;Humidity;BMP_temperature;BMP_pressure;BME280_temperature;BME280_humidity;BME280_pressure;Samples;Min_cycle;Max_cycle;Signal;HPM_P1;HPM_P2
2023/05/11 00:39:00;;;;;;;0.80;0.22;;;9.70;99.90;;;;;;4512863;28;20192;-71
2023/05/11 00:41:25;;;;;;;0.45;0.00;;;9.70;99.90;;;;;;5037233;28;20116;-71
2023/05/11 00:43:51;;;;;;;0.00;0.00;;;9.80;99.90;;;;;;5038539;28;20048;-71
2023/05/11 00:46:17;;;;;;;0.75;0.08;;;9.80;99.90;;;;;;5039174;28;20028;-71
2023/05/11 00:48:43;;;;;;;0.30;0.08;;;9.90;99.90;;;;;;5030744;28;20495;-71
2023/05/11 00:51:11;;;;;;;2.70;0.32;;;9.80;99.90;;;;;;5041368;28;20114;-71
2023/05/11 00:53:37;;;;;;;0.63;0.20;;;9.80;99.90;;;;;;5038520;28;20025;-71
2023/05/11 00:56:03;;;;;;;0.32;0.10;;;9.80;99.90;;;;;;5037210;28;20052;-71
2023/05/11 00:58:30;;;;;;;0.35;0.20;;;9.80;99.90;;;;;;5041300;28;20033;-71
2023/05/11 01:00:55;;;;;;;0.22;0.10;;;9.80;99.90;;;;;;5045417;28;20033;-71
2023/05/11 01:03:21;;;;;;;0.93;0.10;;;10.00;99.90;;;;;;5035762;28;20032;-71
2023/05/11 01:06:17;;;;;;;0.10;0.00;;;9.90;99.90;;;;;;5035525;28;20040;-71
2023/05/11 01:09:01;;;;;;;0.30;0.05;;;10.10;99.90;;;;;;5032828;28;20025;-71
2023/05/11 01:11:45;;;;;;;0.10;0.08;;;10.10;99.90;;;;;;5037967;28;20032;-71
2023/05/11 01:14:23;;;;;;;0.47;0.13;;;10.20;99.90;;;;;;5034112;28;20030;-71
2023/05/11 01:16:54;;;;;;;0.47;0.13;;;10.00;99.90;;;;;;5041666;28;20076;-71
2023/05/11 01:19:42;;;;;;;0.10;0.00;;;9.90;99.90;;;;;;5031178;28;20024;-71
2023/05/11 01:22:45;;;;;;;0.08;0.00;;;10.10;99.90;;;;;;5035612;28;20037;-71
2023/05/11 01:25:14;;;;;;;1.08;0.10;;;10.10;99.90;;;;;;5038750;28;20512;-71
2023/05/11 01:28:01;;;;;;;0.52;0.10;;;10.00;99.90;;;;;;5049335;28;20154;-71
2023/05/11 01:30:38;;;;;;;4.95;0.93;;;10.10;99.90;;;;;;5049118;28;20025;-74
2023/05/11 01:33:08;;;;;;;1.10;0.10;;;10.00;99.90;;;;;;5045090;28;20028;-74
2023/05/11 01:35:37;;;;;;;0.20;0.10;;;9.90;99.90;;;;;;5038162;28;20049;-73
2023/05/11 01:38:08;;;;;;;0.55;0.20;;;9.90;99.90;;;;;;5034506;28;20111;-74
2023/05/11 01:40:35;;;;;;;1.55;0.65;;;10.00;99.90;;;;;;5039720;28;20034;-74
2023/05/11 01:43:04;;;;;;;0.73;0.20;;;10.00;99.90;;;;;;5035789;28;20026;-73
2023/05/11 01:45:34;;;;;;;2.80;0.20;;;10.00;99.90;;;;;;5034951;28;20061;-74
2023/05/11 01:48:04;;;;;;;0.85;0.10;;;10.00;99.90;;;;;;5035018;28;20112;-74
2023/05/11 01:50:31;;;;;;;0.00;0.00;;;10.00;99.90;;;;;;5040351;28;20218;-73
2023/05/11 01:52:58;;;;;;;0.50;0.20;;;9.80;99.90;;;;;;5046677;28;20104;-74
2023/05/11 01:55:25;;;;;;;0.32;0.10;;;9.80;99.90;;;;;;5038591;28;20036;-72
2023/05/11 01:57:53;;;;;;;1.35;0.30;;;9.80;99.90;;;;;;5036737;28;20499;-71
2023/05/11 02:00:19;;;;;;;0.80;0.20;;;9.80;99.90;;;;;;5042475;28;20060;-72
2023/05/11 02:02:47;;;;;;;1.30;0.20;;;9.90;99.90;;;;;;5035658;28;20041;-72
2023/05/11 02:05:21;;;;;;;0.05;0.05;;;9.90;99.90;;;;;;5045902;28;20127;-72
2023/05/11 02:07:50;;;;;;;0.43;0.10;;;9.80;99.90;;;;;;5045169;28;20042;-72
2023/05/11 02:10:17;;;;;;;0.30;0.15;;;9.70;99.90;;;;;;5040263;28;20028;-72
2023/05/11 02:12:44;;;;;;;0.00;0.00;;;9.80;99.90;;;;;;5041606;28;20056;-72
2023/05/11 02:15:11;;;;;;;0.17;0.00;;;9.90;99.90;;;;;;5034822;28;20483;-72
2023/05/11 02:17:39;;;;;;;1.50;0.32;;;9.90;99.90;;;;;;5041168;28;20021;-72
2023/05/11 02:20:06;;;;;;;0.38;0.10;;;9.90;99.90;;;;;;5046889;28;20119;-72
2023/05/11 02:22:34;;;;;;;1.92;0.20;;;10.00;99.90;;;;;;5038896;28;20398;-72
2023/05/11 02:25:00;;;;;;;0.73;0.13;;;10.10;99.90;;;;;;5035823;28;20044;-72
2023/05/11 02:27:25;;;;;;;0.65;0.10;;;10.10;99.90;;;;;;5046826;28;20021;-72
2023/05/11 02:29:51;;;;;;;0.15;0.03;;;10.10;99.90;;;;;;5042233;28;20061;-72
2023/05/11 02:32:20;;;;;;;0.20;0.20;;;10.00;99.90;;;;;;5049871;28;20021;-72
2023/05/11 02:34:54;;;;;;;0.73;0.32;;;10.10;99.90;;;;;;5036501;28;20402;-72
2023/05/11 02:37:23;;;;;;;0.20;0.20;;;10.00;99.90;;;;;;5036096;28;20025;-72
2023/05/11 02:39:56;;;;;;;0.25;0.10;;;10.20;99.90;;;;;;5040875;28;20081;-72
2023/05/11 02:42:23;;;;;;;0.45;0.10;;;10.10;99.90;;;;;;5041426;28;20111;-72
2023/05/11 02:45:02;;;;;;;1.65;0.70;;;10.00;99.90;;;;;;5047215;28;20045;-72
2023/05/11 02:47:31;;;;;;;0.70;0.30;;;9.80;99.90;;;;;;5040301;28;20024;-72
2023/05/11 02:50:00;;;;;;;3.38;0.60;;;9.80;99.90;;;;;;5040499;28;20505;-72
2023/05/11 02:52:27;;;;;;;0.63;0.20;;;9.90;99.90;;;;;;5040278;28;20037;-72
2023/05/11 02:54:55;;;;;;;1.30;0.30;;;9.90;99.90;;;;;;5036399;28;20029;-72
2023/05/11 02:57:22;;;;;;;0.60;0.25;;;9.90;99.90;;;;;;5042548;28;20466;-72
2023/05/11 02:59:48;;;;;;;0.55;0.28;;;10.10;99.90;;;;;;5041631;28;20476;-72
2023/05/11 03:02:14;;;;;;;0.45;0.15;;;10.00;99.90;;;;;;5043934;28;20036;-71
2023/05/11 03:04:40;;;;;;;0.10;0.10;;;10.10;99.90;;;;;;5028081;28;20049;-71
2023/05/11 03:07:06;;;;;;;0.38;0.25;;;10.00;99.90;;;;;;5033244;28;20022;-71
2023/05/11 03:09:33;;;;;;;0.45;0.20;;;10.00;99.90;;;;;;5037280;28;20028;-71
2023/05/11 03:12:01;;;;;;;0.60;0.15;;;10.00;99.90;;;;;;5035983;28;20032;-71
2023/05/11 03:14:26;;;;;;;2.58;0.20;;;10.00;99.90;;;;;;5034701;28;20106;-71
2023/05/11 03:16:54;;;;;;;0.60;0.30;;;10.00;99.90;;;;;;5031464;28;20063;-71
2023/05/11 03:19:20;;;;;;;0.77;0.20;;;10.00;99.90;;;;;;5030007;28;20049;-70
2023/05/11 03:21:48;;;;;;;0.38;0.20;;;9.90;99.90;;;;;;5030495;28;20060;-71
2023/05/11 03:24:15;;;;;;;1.23;0.30;;;10.00;99.90;;;;;;5035624;28;20552;-71
2023/05/11 03:26:42;;;;;;;0.77;0.25;;;10.00;99.90;;;;;;5031355;28;21430;-71
2023/05/11 03:29:08;;;;;;;1.02;0.40;;;9.90;99.90;;;;;;5026348;28;20026;-72
2023/05/11 03:31:34;;;;;;;0.00;0.00;;;9.90;99.90;;;;;;5039834;28;20029;-71
2023/05/11 03:34:00;;;;;;;1.08;0.20;;;10.00;99.90;;;;;;5028915;28;20067;-71
2023/05/11 03:36:26;;;;;;;0.45;0.20;;;10.00;99.90;;;;;;5032835;28;20399;-71
2023/05/11 03:38:56;;;;;;;1.05;0.30;;;10.00;99.90;;;;;;5033500;28;20058;-71
2023/05/11 03:41:25;;;;;;;0.45;0.20;;;10.00;99.90;;;;;;5032143;28;20033;-71
2023/05/11 03:43:51;;;;;;;0.45;0.20;;;10.00;99.90;;;;;;5034530;28;20034;-71
2023/05/11 03:46:22;;;;;;;0.65;0.40;;;10.00;99.90;;;;;;5037238;28;20026;-72
2023/05/11 03:48:49;;;;;;;1.27;0.25;;;10.00;99.90;;;;;;5032947;28;20033;-71
2023/05/11 03:51:15;;;;;;;0.95;0.50;;;9.90;99.90;;;;;;5030982;28;20026;-71
2023/05/11 03:53:41;;;;;;;1.05;0.50;;;10.00;99.90;;;;;;5039501;28;20037;-71
2023/05/11 03:56:07;;;;;;;0.55;0.47;;;9.90;99.90;;;;;;5032487;28;20082;-71
2023/05/11 03:58:36;;;;;;;0.52;0.40;;;10.00;99.90;;;;;;5025212;28;20026;-71
2023/05/11 04:01:02;;;;;;;1.48;0.88;;;10.10;99.90;;;;;;5024404;28;20044;-71
2023/05/11 04:03:28;;;;;;;0.93;0.47;;;10.10;99.90;;;;;;5032869;28;20029;-71
2023/05/11 04:05:54;;;;;;;0.75;0.40;;;10.00;99.90;;;;;;5030871;28;20498;-71
2023/05/11 04:08:20;;;;;;;0.60;0.30;;;9.90;99.90;;;;;;5029739;28;20029;-71
2023/05/11 04:10:45;;;;;;;0.32;0.20;;;9.80;99.90;;;;;;5034906;28;20040;-71
2023/05/11 04:13:11;;;;;;;1.30;0.40;;;9.70;99.90;;;;;;5029939;28;20040;-71
2023/05/11 04:15:36;;;;;;;0.43;0.20;;;9.80;99.90;;;;;;5034213;28;20029;-71
2023/05/11 04:18:02;;;;;;;2.90;0.57;;;9.80;99.90;;;;;;5028115;28;20024;-71
2023/05/11 04:20:27;;;;;;;0.55;0.20;;;9.80;99.90;;;;;;5025450;28;20191;-71
2023/05/11 04:22:53;;;;;;;1.33;0.20;;;9.80;99.90;;;;;;5033612;28;20072;-71
2023/05/11 04:25:19;;;;;;;2.60;0.30;;;9.90;99.90;;;;;;5032068;28;20480;-71
2023/05/11 04:27:44;;;;;;;0.10;0.10;;;9.80;99.90;;;;;;5031717;28;20028;-72
2023/05/11 04:30:10;;;;;;;0.32;0.13;;;9.90;99.90;;;;;;5023720;28;20556;-71
2023/05/11 04:32:36;;;;;;;0.52;0.25;;;9.90;99.90;;;;;;5029236;28;20079;-72
2023/05/11 04:35:02;;;;;;;0.43;0.13;;;10.00;99.90;;;;;;5029434;28;20032;-72
2023/05/11 04:37:27;;;;;;;0.50;0.40;;;10.10;99.90;;;;;;5024262;28;20055;-70
2023/05/11 04:39:53;;;;;;;0.30;0.20;;;10.10;99.90;;;;;;5023476;28;20614;-71
2023/05/11 04:42:19;;;;;;;1.48;0.10;;;10.10;99.90;;;;;;5035596;28;21388;-71
2023/05/11 04:44:44;;;;;;;0.47;0.13;;;10.10;99.90;;;;;;5037050;28;20518;-71
2023/05/11 04:47:10;;;;;;;0.68;0.20;;;10.10;99.90;;;;;;5034463;28;20033;-71
2023/05/11 04:49:35;;;;;;;0.35;0.35;;;10.00;99.90;;;;;;5029472;28;20111;-71
2023/05/11 04:52:01;;;;;;;0.88;0.50;;;10.00;99.90;;;;;;5021906;28;20034;-71
2023/05/11 04:54:27;;;;;;;1.23;0.45;;;10.10;99.90;;;;;;5025779;28;20031;-71
2023/05/11 04:56:52;;;;;;;4.43;0.50;;;10.10;99.90;;;;;;5023244;28;20125;-71
2023/05/11 04:59:18;;;;;;;1.38;0.70;;;10.10;99.90;;;;;;5025257;28;20042;-71
2023/05/11 05:01:44;;;;;;;1.08;0.65;;;10.10;99.90;;;;;;5030511;28;20067;-71
2023/05/11 05:04:09;;;;;;;2.40;0.60;;;10.10;99.90;;;;;;5030250;28;20088;-71
2023/05/11 05:06:37;;;;;;;0.98;0.45;;;10.00;99.90;;;;;;5032312;28;20063;-71
2023/05/11 05:09:02;;;;;;;1.55;0.70;;;10.00;99.90;;;;;;5039259;28;20513;-71
2023/05/11 05:11:28;;;;;;;1.45;0.90;;;10.00;99.90;;;;;;5032597;28;20053;-71
2023/05/11 05:13:54;;;;;;;1.58;0.47;;;10.00;99.90;;;;;;5039128;28;20021;-71
2023/05/11 05:16:19;;;;;;;2.05;0.82;;;10.00;99.90;;;;;;5035020;28;20430;-71
2023/05/11 05:18:45;;;;;;;1.45;0.63;;;10.00;99.90;;;;;;5029195;28;20033;-70
2023/05/11 05:21:11;;;;;;;0.65;0.47;;;10.00;99.90;;;;;;5032890;28;20087;-71
2023/05/11 05:23:36;;;;;;;1.63;0.45;;;10.00;99.90;;;;;;5034747;28;20024;-71
2023/05/11 05:26:02;;;;;;;2.50;0.20;;;9.90;99.90;;;;;;5028368;28;20043;-72
2023/05/11 05:28:28;;;;;;;0.38;0.30;;;9.90;99.90;;;;;;5030210;28;20036;-72
2023/05/11 05:30:53;;;;;;;0.75;0.30;;;9.90;99.90;;;;;;5040845;28;20045;-73
2023/05/11 05:33:19;;;;;;;0.68;0.15;;;10.00;99.90;;;;;;5032696;28;20053;-74
2023/05/11 05:35:45;;;;;;;3.15;0.32;;;9.90;99.90;;;;;;5036372;28;20120;-74
2023/05/11 05:38:11;;;;;;;0.90;0.10;;;10.10;99.90;;;;;;5029161;28;20083;-73
2023/05/11 05:40:38;;;;;;;0.57;0.20;;;10.10;99.90;;;;;;5026351;28;20104;-73
2023/05/11 05:43:04;;;;;;;0.50;0.20;;;10.10;99.90;;;;;;5040436;28;20048;-73
2023/05/11 05:45:30;;;;;;;1.35;0.30;;;10.10;99.90;;;;;;5032079;28;20583;-73
2023/05/11 05:47:59;;;;;;;0.65;0.20;;;10.10;99.90;;;;;;5032800;28;20036;-73
2023/05/11 05:50:25;;;;;;;1.73;0.75;;;10.10;99.90;;;;;;5032002;28;20048;-73
2023/05/11 05:52:50;;;;;;;0.52;0.20;;;10.10;99.90;;;;;;5026868;28;20030;-74
2023/05/11 05:55:16;;;;;;;0.55;0.22;;;10.00;99.90;;;;;;5026766;28;20075;-74
2023/05/11 05:57:41;;;;;;;3.10;0.20;;;10.10;99.90;;;;;;5033977;28;20450;-73
2023/05/11 06:00:08;;;;;;;0.80;0.25;;;10.10;99.90;;;;;;5028942;28;20033;-73
2023/05/11 06:02:34;;;;;;;0.77;0.20;;;10.10;99.90;;;;;;5031590;28;20463;-73
2023/05/11 06:05:00;;;;;;;0.75;0.20;;;10.10;99.90;;;;;;5034002;28;20037;-73
2023/05/11 06:07:25;;;;;;;1.45;0.65;;;10.10;99.90;;;;;;5032316;28;20017;-74
2023/05/11 06:09:51;;;;;;;1.35;0.32;;;10.10;99.90;;;;;;5031969;28;20033;-73
2023/05/11 06:12:17;;;;;;;0.25;0.15;;;10.20;99.90;;;;;;5035749;28;20037;-73
2023/05/11 06:14:42;;;;;;;0.55;0.17;;;10.10;99.90;;;;;;5023545;28;20041;-73
2023/05/11 06:17:08;;;;;;;0.55;0.10;;;10.10;99.90;;;;;;5041784;28;20028;-73
2023/05/11 06:19:34;;;;;;;0.70;0.47;;;10.20;99.90;;;;;;5037510;28;20772;-73
2023/05/11 06:21:59;;;;;;;0.90;0.10;;;10.30;99.90;;;;;;5036324;28;20656;-75
2023/05/11 06:24:25;;;;;;;0.93;0.08;;;10.20;99.90;;;;;;5035622;28;20166;-75
2023/05/11 06:26:51;;;;;;;1.33;0.63;;;10.30;99.90;;;;;;5032791;28;20117;-75
2023/05/11 06:29:18;;;;;;;0.03;0.03;;;10.20;99.90;;;;;;5042432;28;20025;-75
2023/05/11 06:31:44;;;;;;;0.50;0.20;;;10.20;99.90;;;;;;5034227;28;20395;-75
2023/05/11 06:34:09;;;;;;;0.45;0.10;;;10.20;99.90;;;;;;5035961;28;20029;-75
2023/05/11 06:36:35;;;;;;;0.30;0.13;;;10.30;99.90;;;;;;5030585;28;20032;-75
2023/05/11 06:39:01;;;;;;;1.95;0.17;;;10.30;99.90;;;;;;5027100;28;20049;-75
2023/05/11 06:41:26;;;;;;;0.20;0.10;;;10.30;99.90;;;;;;5036247;28;20021;-75
2023/05/11 06:43:52;;;;;;;0.75;0.20;;;10.30;99.90;;;;;;5034156;28;20032;-75
2023/05/11 06:46:18;;;;;;;0.35;0.20;;;10.30;99.90;;;;;;5038933;28;20113;-75
2023/05/11 06:48:43;;;;;;;2.03;0.20;;;10.30;99.90;;;;;;5032690;28;20033;-74
2023/05/11 06:51:10;;;;;;;1.05;0.40;;;10.30;99.90;;;;;;5035382;28;20033;-75
2023/05/11 06:53:36;;;;;;;2.13;0.60;;;10.40;99.90;;;;;;5036169;28;20036;-75
2023/05/11 06:56:02;;;;;;;1.02;0.45;;;10.30;99.90;;;;;;5031412;28;20057;-75
2023/05/11 06:58:28;;;;;;;0.70;0.22;;;10.30;99.90;;;;;;5037359;28;20482;-75
2023/05/11 07:00:54;;;;;;;0.60;0.20;;;10.20;99.90;;;;;;5039243;28;20478;-75
2023/05/11 07:03:19;;;;;;;0.10;0.10;;;10.20;99.90;;;;;;5038822;28;20518;-75
2023/05/11 07:05:45;;;;;;;1.67;0.30;;;10.30;99.90;;;;;;5024894;28;20033;-75
2023/05/11 07:08:10;;;;;;;0.73;0.38;;;10.30;99.90;;;;;;5031121;28;20029;-75
2023/05/11 07:10:36;;;;;;;0.85;0.10;;;10.20;99.90;;;;;;5033594;28;20028;-75
2023/05/11 07:13:03;;;;;;;0.30;0.20;;;10.20;99.90;;;;;;5032133;28;20025;-75
2023/05/11 07:15:29;;;;;;;0.65;0.10;;;10.30;99.90;;;;;;5032114;28;20039;-75
2023/05/11 07:17:54;;;;;;;0.77;0.20;;;10.30;99.90;;;;;;5030683;28;20038;-76
2023/05/11 07:20:20;;;;;;;0.73;0.15;;;10.30;99.90;;;;;;5033334;28;20376;-75
2023/05/11 07:22:45;;;;;;;1.33;0.22;;;10.20;99.90;;;;;;5034670;28;20033;-75
2023/05/11 07:25:11;;;;;;;0.47;0.10;;;10.20;99.90;;;;;;5037571;28;20041;-76
2023/05/11 07:27:37;;;;;;;1.88;0.25;;;10.30;99.90;;;;;;5031387;28;20094;-75
2023/05/11 07:30:03;;;;;;;0.28;0.05;;;10.30;99.90;;;;;;5034205;28;20029;-75
2023/05/11 07:32:29;;;;;;;2.25;0.20;;;10.30;99.90;;;;;;5032432;28;20107;-75
2023/05/11 07:34:56;;;;;;;1.15;0.30;;;10.40;99.90;;;;;;5036661;28;20127;-75
2023/05/11 07:37:21;;;;;;;0.43;0.20;;;10.40;99.90;;;;;;5031756;28;20395;-75
2023/05/11 07:39:47;;;;;;;1.90;0.20;;;10.40;99.90;;;;;;5032208;28;20053;-76
2023/05/11 07:42:12;;;;;;;0.50;0.15;;;10.50;99.90;;;;;;5028344;28;20124;-75
2023/05/11 07:44:38;;;;;;;0.88;0.30;;;10.60;99.90;;;;;;5035161;28;20043;-75
2023/05/11 07:47:04;;;;;;;0.88;0.20;;;10.70;99.90;;;;;;5035292;28;20281;-75
2023/05/11 07:49:29;;;;;;;0.40;0.20;;;10.60;99.90;;;;;;5033542;28;21183;-75
2023/05/11 07:51:55;;;;;;;0.30;0.10;;;10.60;99.90;;;;;;5036775;28;20366;-75
2023/05/11 07:54:21;;;;;;;0.93;0.17;;;10.60;99.90;;;;;;5027399;28;20037;-75
2023/05/11 07:56:46;;;;;;;0.85;0.35;;;10.60;99.90;;;;;;5019776;28;20033;-75
2023/05/11 07:59:12;;;;;;;0.10;0.03;;;10.60;99.90;;;;;;5030273;28;20051;-75
2023/05/11 08:01:37;;;;;;;0.63;0.13;;;10.60;99.90;;;;;;5021618;28;20468;-75
2023/05/11 08:04:03;;;;;;;0.45;0.20;;;10.50;99.90;;;;;;5031103;28;20071;-75
2023/05/11 08:06:29;;;;;;;1.05;0.20;;;10.60;99.90;;;;;;5023614;28;20041;-75
2023/05/11 08:08:54;;;;;;;0.03;0.03;;;10.50;99.90;;;;;;5031958;28;20430;-75
2023/05/11 08:11:20;;;;;;;0.52;0.20;;;10.70;99.90;;;;;;5023741;28;20044;-75
2023/05/11 08:13:46;;;;;;;0.95;0.30;;;10.60;99.90;;;;;;5034205;28;20037;-75
2023/05/11 08:16:12;;;;;;;0.40;0.20;;;10.60;99.90;;;;;;5025125;28;20035;-75
2023/05/11 08:18:37;;;;;;;1.25;0.35;;;10.60;99.90;;;;;;5027170;28;20041;-75
2023/05/11 08:21:03;;;;;;;0.30;0.13;;;10.50;99.90;;;;;;5029953;28;20432;-75
2023/05/11 08:23:29;;;;;;;0.80;0.20;;;10.70;99.90;;;;;;5034204;28;20036;-75
2023/05/11 08:25:54;;;;;;;0.40;0.20;;;10.80;99.90;;;;;;5031908;28;25797;-75
2023/05/11 08:28:21;;;;;;;0.75;0.40;;;10.80;99.90;;;;;;5026753;28;20116;-75
2023/05/11 08:30:54;;;;;;;1.13;0.20;;;10.70;99.90;;;;;;5022415;28;20036;-75
2023/05/11 08:33:20;;;;;;;0.63;0.22;;;10.60;99.90;;;;;;5024752;28;20025;-75
2023/05/11 08:35:45;;;;;;;0.55;0.20;;;10.60;99.90;;;;;;5025162;28;20763;-75
2023/05/11 08:38:12;;;;;;;0.50;0.30;;;10.80;99.90;;;;;;5039052;28;20080;-75
2023/05/11 08:40:42;;;;;;;1.08;0.43;;;10.90;99.90;;;;;;5028428;28;20415;-75
2023/05/11 08:43:09;;;;;;;1.00;0.35;;;10.80;99.90;;;;;;5027901;28;20057;-77
2023/05/11 08:45:35;;;;;;;0.30;0.10;;;10.80;99.90;;;;;;5038055;28;20073;-77
2023/05/11 08:48:02;;;;;;;1.13;0.30;;;10.80;99.90;;;;;;5038035;28;20065;-77
2023/05/11 08:50:28;;;;;;;0.82;0.38;;;10.80;99.90;;;;;;5033037;28;20029;-77
2023/05/11 08:52:53;;;;;;;0.60;0.20;;;11.00;99.90;;;;;;5034023;28;20075;-77
2023/05/11 08:55:21;;;;;;;0.38;0.20;;;11.00;99.90;;;;;;5033619;28;20029;-77
2023/05/11 08:57:47;;;;;;;0.40;0.20;;;11.20;99.90;;;;;;5028743;28;20039;-77
2023/05/11 09:00:14;;;;;;;2.75;0.93;;;11.10;99.90;;;;;;5026788;28;20081;-77
2023/05/11 09:02:40;;;;;;;0.28;0.25;;;11.10;99.90;;;;;;5031915;28;20033;-77
2023/05/11 09:05:07;;;;;;;2.20;0.40;;;11.20;99.90;;;;;;5034117;28;20041;-77
2023/05/11 09:07:37;;;;;;;2.25;0.50;;;11.10;99.90;;;;;;5026792;28;20029;-77
2023/05/11 09:10:03;;;;;;;2.50;0.47;;;11.30;99.90;;;;;;5026761;28;20037;-77
2023/05/11 09:12:29;;;;;;;1.33;0.65;;;11.30;99.90;;;;;;5032891;28;20029;-77
2023/05/11 09:14:55;;;;;;;1.38;0.40;;;11.10;99.90;;;;;;5032535;28;20116;-77
2023/05/11 09:17:24;;;;;;;0.52;0.32;;;11.10;99.90;;;;;;5033881;28;20064;-77
2023/05/11 09:19:58;;;;;;;0.90;0.20;;;11.20;99.90;;;;;;5033078;28;20650;-77
2023/05/11 09:22:24;;;;;;;0.93;0.30;;;11.10;99.90;;;;;;5038283;28;20021;-77
2023/05/11 09:24:50;;;;;;;1.02;0.30;;;11.30;99.90;;;;;;5036108;28;20094;-77
2023/05/11 09:27:15;;;;;;;0.47;0.20;;;11.50;99.90;;;;;;5035332;28;20025;-77
2023/05/11 09:29:41;;;;;;;2.70;0.82;;;11.40;99.90;;;;;;5029967;28;20033;-77
2023/05/11 09:32:07;;;;;;;2.28;0.60;;;11.40;99.90;;;;;;5036099;28;20112;-77
2023/05/11 09:34:32;;;;;;;1.45;0.73;;;11.50;99.90;;;;;;5032571;28;20031;-77
2023/05/11 09:36:58;;;;;;;2.00;1.00;;;11.50;99.90;;;;;;5033404;28;20025;-77
2023/05/11 09:39:29;;;;;;;5.40;1.30;;;11.50;99.90;;;;;;5026615;28;21033;-77
2023/05/11 09:42:14;;;;;;;8.63;1.83;;;11.60;99.90;;;;;;5035671;28;20118;-76
2023/05/11 09:44:40;;;;;;;3.05;0.82;;;11.80;99.90;;;;;;5036392;28;20091;-76
2023/05/11 09:47:13;;;;;;;7.05;1.23;;;11.80;99.90;;;;;;5038730;28;20226;-77
2023/05/11 09:49:43;;;;;;;3.72;1.40;;;11.70;99.90;;;;;;5040022;28;20370;-77
2023/05/11 09:52:13;;;;;;;2.92;1.15;;;11.70;99.90;;;;;;5032209;28;20120;-77
2023/05/11 09:54:45;;;;;;;2.25;0.60;;;11.90;99.90;;;;;;5039576;28;20029;-77
2023/05/11 09:57:30;;;;;;;1.75;0.80;;;11.90;99.90;;;;;;5039343;28;20041;-77
2023/05/11 09:59:57;;;;;;;;;;;12.00;99.90;;;;;;5041018;28;20029;-77
2023/05/11 10:02:25;;;;;;;2.20;0.60;;;12.10;99.90;;;;;;5036296;28;19909;-76
2023/05/11 10:04:53;;;;;;;6.63;2.60;;;12.00;99.90;;;;;;5030829;28;20042;-77
2023/05/11 10:07:28;;;;;;;3.20;1.58;;;12.00;99.90;;;;;;5038179;28;20384;-77
2023/05/11 10:09:56;;;;;;;1.27;0.60;;;12.10;99.90;;;;;;5030267;28;20129;-77
2023/05/11 10:12:24;;;;;;;1.98;0.70;;;12.40;99.90;;;;;;5040398;28;20092;-77
2023/05/11 10:14:53;;;;;;;3.35;0.80;;;12.30;99.90;;;;;;5037056;28;20041;-77
2023/05/11 10:17:19;;;;;;;1.20;0.47;;;12.30;99.90;;;;;;5036742;28;20452;-77
2023/05/11 10:19:48;;;;;;;2.90;0.38;;;12.10;99.90;;;;;;5031832;28;20028;-77
2023/05/11 10:22:16;;;;;;;1.85;0.52;;;12.50;99.90;;;;;;5029164;28;20036;-77
2023/05/11 10:24:42;;;;;;;3.67;0.60;;;12.20;99.90;;;;;;5032678;28;20065;-77
2023/05/11 10:27:11;;;;;;;3.40;0.55;;;12.20;99.90;;;;;;5038298;28;20065;-77
2023/05/11 10:29:36;;;;;;;2.13;0.40;;;12.10;99.90;;;;;;5036768;28;20040;-77
2023/05/11 10:32:04;;;;;;;3.22;0.82;;;12.20;99.90;;;;;;5036807;28;20502;-77
2023/05/11 10:34:31;;;;;;;1.73;0.65;;;12.30;99.90;;;;;;5034089;28;20033;-77
2023/05/11 10:36:59;;;;;;;3.00;1.40;;;12.50;99.90;;;;;;5029387;28;20029;-77
2023/05/11 10:39:25;;;;;;;1.00;0.50;;;12.60;99.90;;;;;;5033468;28;20041;-77
2023/05/11 10:42:02;;;;;;;2.35;0.70;;;12.70;99.90;;;;;;5033268;28;20097;-77
2023/05/11 10:45:06;;;;;;;1.25;0.25;;;12.50;99.90;;;;;;5036991;28;20041;-76
2023/05/11 10:47:50;;;;;;;1.05;0.40;;;12.30;99.90;;;;;;5032672;28;20038;-77
2023/05/11 10:50:57;;;;;;;1.23;0.40;;;12.30;99.90;;;;;;5036428;28;20041;-76
2023/05/11 10:53:39;;;;;;;0.70;0.30;;;12.60;99.90;;;;;;5019871;28;20048;-76
2023/05/11 10:56:23;;;;;;;0.43;0.25;;;12.50;99.90;;;;;;5036281;28;20068;-76
2023/05/11 10:59:01;;;;;;;0.25;0.20;;;12.50;99.90;;;;;;5036988;28;20378;-76
2023/05/11 11:01:40;;;;;;;1.70;0.50;;;12.50;99.90;;;;;;5029357;28;20025;-76
2023/05/11 11:04:11;;;;;;;3.55;0.95;;;12.60;99.90;;;;;;5031785;28;20044;-76
2023/05/11 11:06:39;;;;;;;0.40;0.28;;;12.60;99.90;;;;;;5028732;28;20095;-76
2023/05/11 11:09:07;;;;;;;0.60;0.40;;;12.50;99.90;;;;;;5040089;28;20025;-76
2023/05/11 11:11:46;;;;;;;1.20;0.93;;;12.50;99.90;;;;;;5034756;28;20410;-76
2023/05/11 11:14:13;;;;;;;1.88;0.68;;;12.60;99.90;;;;;;5036235;28;20042;-76
2023/05/11 11:16:44;;;;;;;1.13;0.47;;;12.70;99.90;;;;;;5035505;28;20146;-76
2023/05/11 11:19:28;;;;;;;2.83;1.00;;;12.60;99.90;;;;;;5038606;28;20388;-77
2023/05/11 11:21:58;;;;;;;1.85;0.50;;;12.70;99.90;;;;;;5033607;28;20122;-77
2023/05/11 11:24:36;;;;;;;1.15;0.43;;;12.50;99.90;;;;;;5034379;28;20037;-77
2023/05/11 11:27:02;;;;;;;1.13;0.40;;;12.80;99.90;;;;;;5032710;28;20097;-77
2023/05/11 11:29:29;;;;;;;0.47;0.25;;;12.60;99.90;;;;;;5037310;28;20032;-77
2023/05/11 11:32:15;;;;;;;0.80;0.40;;;12.70;99.90;;;;;;5033844;28;20026;-77
2023/05/11 11:34:40;;;;;;;0.80;0.40;;;12.70;99.90;;;;;;5032901;28;20060;-77
2023/05/11 11:37:07;;;;;;;1.65;0.73;;;13.00;99.90;;;;;;5035041;28;20491;-80
2023/05/11 11:39:42;;;;;;;1.88;0.50;;;12.90;99.90;;;;;;5031188;28;20133;-79
2023/05/11 11:42:43;;;;;;;;;;;12.70;99.90;;;;;;5031029;28;20551;-78
2023/05/11 11:45:39;;;;;;;1.02;0.40;;;12.80;99.90;;;;;;4982582;28;20045;-76
2023/05/11 11:48:11;;;;;;;1.80;0.80;;;12.80;99.90;;;;;;5022040;28;20048;-77
2023/05/11 11:50:39;;;;;;;1.60;0.77;;;12.70;99.90;;;;;;5035948;28;20376;-76
2023/05/11 11:53:04;;;;;;;0.80;0.20;;;12.80;99.90;;;;;;5036630;28;20050;-76
2023/05/11 11:55:48;;;;;;;1.42;0.30;;;12.90;99.90;;;;;;5032199;28;20059;-76
2023/05/11 11:58:39;;;;;;;0.95;0.63;;;13.10;99.90;;;;;;5031240;28;20168;-76
2023/05/11 12:01:05;;;;;;;0.35;0.25;;;13.10;99.90;;;;;;5034708;28;20600;-76
2023/05/11 12:03:36;;;;;;;1.73;0.28;;;12.90;99.90;;;;;;5026741;28;20076;-76
2023/05/11 12:06:04;;;;;;;1.10;0.30;;;13.10;99.90;;;;;;5025655;28;20056;-76
2023/05/11 12:08:31;;;;;;;0.65;0.30;;;13.10;99.90;;;;;;5031211;28;20476;-76
2023/05/11 12:10:57;;;;;;;2.75;1.35;;;13.30;99.90;;;;;;5038841;28;20053;-76
2023/05/11 12:13:24;;;;;;;1.67;0.70;;;13.30;99.90;;;;;;5037739;28;20032;-76
2023/05/11 12:16:06;;;;;;;1.10;0.20;;;13.20;99.90;;;;;;5036885;28;20029;-77
2023/05/11 12:18:31;;;;;;;2.10;0.50;;;13.30;99.90;;;;;;5032940;28;20029;-76
2023/05/11 12:20:57;;;;;;;2.28;0.30;;;13.50;99.90;;;;;;5036342;28;20024;-77
2023/05/11 12:23:23;;;;;;;0.82;0.20;;;13.50;99.90;;;;;;5030206;28;20111;-76
2023/05/11 12:26:05;;;;;;;2.42;0.50;;;13.70;99.90;;;;;;5035090;28;20068;-76
2023/05/11 12:28:34;;;;;;;0.32;0.20;;;13.60;99.90;;;;;;5026278;28;20042;-76
2023/05/11 12:31:00;;;;;;;0.80;0.20;;;13.70;99.90;;;;;;5033829;28;20059;-76
2023/05/11 12:33:26;;;;;;;1.45;0.40;;;13.80;99.90;;;;;;5030486;28;20114;-75
2023/05/11 12:35:54;;;;;;;1.88;0.43;;;13.70;99.90;;;;;;5029651;28;20048;-76
2023/05/11 12:38:20;;;;;;;0.85;0.35;;;13.70;99.90;;;;;;5037852;28;20075;-76
2023/05/11 12:40:50;;;;;;;2.67;0.52;;;13.90;99.90;;;;;;5032794;28;20037;-76
2023/05/11 12:43:18;;;;;;;0.60;0.20;;;13.80;99.90;;;;;;5033547;28;20116;-75
2023/05/11 12:45:45;;;;;;;0.50;0.28;;;13.80;99.90;;;;;;5031013;28;20044;-76
2023/05/11 12:48:11;;;;;;;0.95;0.35;;;14.00;99.90;;;;;;5032486;28;20407;-80
2023/05/11 12:50:44;;;;;;;1.50;0.47;;;13.70;99.90;;;;;;5026142;28;20045;-77
2023/05/11 12:53:18;;;;;;;0.98;0.32;;;14.00;99.90;;;;;;5032515;28;20033;-77
2023/05/11 12:55:45;;;;;;;1.08;0.50;;;14.00;99.90;;;;;;5032128;28;20029;-76
2023/05/11 12:58:15;;;;;;;1.88;0.57;;;14.10;99.90;;;;;;5034168;28;20067;-77
2023/05/11 13:00:58;;;;;;;1.40;0.45;;;14.20;99.90;;;;;;5025905;28;20112;-76
2023/05/11 13:03:29;;;;;;;2.28;0.32;;;14.10;99.90;;;;;;5030353;28;20037;-76
2023/05/11 13:06:11;;;;;;;1.25;0.60;;;14.30;99.90;;;;;;5037308;28;20041;-76
2023/05/11 13:08:42;;;;;;;1.08;0.30;;;14.10;99.90;;;;;;5033187;28;20075;-76
2023/05/11 13:11:21;;;;;;;1.08;0.28;;;14.30;99.90;;;;;;5037936;28;20086;-76
2023/05/11 13:13:47;;;;;;;2.55;0.80;;;14.30;99.90;;;;;;5025781;28;20521;-76
2023/05/11 13:16:32;;;;;;;1.70;0.50;;;14.30;99.90;;;;;;5035785;28;20029;-76
2023/05/11 13:19:07;;;;;;;1.33;0.50;;;14.50;99.90;;;;;;5025899;28;20051;-76
2023/05/11 13:21:33;;;;;;;1.30;0.50;;;14.40;99.90;;;;;;5036662;28;20047;-76
2023/05/11 13:23:59;;;;;;;2.58;0.50;;;14.50;99.90;;;;;;5034811;28;20037;-76
2023/05/11 13:26:26;;;;;;;2.55;0.73;;;14.60;99.90;;;;;;5034734;28;20056;-75
2023/05/11 13:28:52;;;;;;;2.10;0.32;;;14.20;99.90;;;;;;5038569;28;20580;-76
2023/05/11 13:31:18;;;;;;;1.17;0.52;;;14.30;99.90;;;;;;5033507;28;20033;-76
2023/05/11 13:33:50;;;;;;;2.42;0.50;;;14.20;99.90;;;;;;5032335;28;20033;-76